메인 페이지
METAR-TAF:

METAR-TAF

공항 :

Yurimaguas, 페루

위도: 05-54S, 경도: 076-05W, 고도: 179m

현재 날씨관측

예보는 8 시간 35분 전, 23:00시(UTC)에 발표되었습니다.
남남서3kt
온도 30°C
습도 70%
기압 1007 hPa
시정 10km 이상
고도 2000ft 상공 구름 조금

METAR: SPMS 212300Z 21003KT 9999 FEW020 30/24 Q1007 RMK BIRD HAZARD RWY09/27 PP000

시각: 02:35 (07:35 UTC)

예보

예보는 14 시간 35분 전, 17:00시(UTC)에 발표되었습니다.
예보 대상 시간: 21일 18시부터 22일 18시까지 (UTC)
북북동5kt
시정 10km 이상
고도 1500ft 상공 구름 보통
고도 10000ft 상공 구름 보통
일시적
21일 20시부터 21일 24시까지 (UTC)
시정: 4000m
고도 1200ft 상공 구름 많음
고도 2500ft 상공 구름 조금, 타워링 적운.
소나기
일시적
22일 10시부터 22일 14시까지 (UTC)
시정: 4000m
고도 800ft 상공 구름 많음
박무,

TAF: SPMS 211700Z 2118/2218 03005KT 9999 SCT015 SCT100 TX33/2120Z TN23/2211Z TEMPO 2120/2124 4000 SHRA BKN012 FEW025TCU TEMPO 2210/2214 4000 BR BKN008

4,000개 이상의 공항 관측 자료 및 예보 (METAR 및 TAF 보고).

지도상에서 검색 가능한 기상관측소가 노란 점과 빨간 점으로 표시되어 있습니다.

기상관측소 명을 보려면 표시 위로 마우스를 이동하세요.

날씨 관측과 예보를 보려면 클릭하세요.

지도 변경 : 확대하려면 엑스 표시가 있는 녹색 버튼, 축소하려면 빼기 표시가 있는 녹색 버튼, 다음 페이지의 지도를 보려면 녹색 화살표를 클릭하세요.


METAR-TAF: